Time;durP1;ratioP1;P1;durP2;ratioP2;P2;SDS_P1;SDS_P2;PMS_P1;PMS_P2;Temp;Humidity;BMP_temperature;BMP_pressure;BME280_temperature;BME280_humidity;BME280_pressure;Samples;Min_cycle;Max_cycle;Signal;HPM_P1;HPM_P2
2023/04/11 00:02:23;;;;;;;7.57;3.47;;;9.80;99.90;;;;;;2611975;54;20145;-76
2023/04/11 00:12:05;;;;;;;3.00;2.70;;;9.90;99.90;;;;;;2611851;54;20419;-75
2023/04/11 00:17:53;;;;;;;4.27;3.17;;;9.90;99.90;;;;;;2611894;54;20402;-76
2023/04/11 00:23:41;;;;;;;6.37;3.13;;;10.00;99.90;;;;;;2611350;54;20396;-76
2023/04/11 00:29:29;;;;;;;6.70;2.57;;;9.90;99.90;;;;;;2612928;54;20226;-75
2023/04/11 00:35:17;;;;;;;5.93;3.50;;;10.00;99.90;;;;;;2611120;54;21159;-76
2023/04/11 00:41:05;;;;;;;5.77;3.10;;;10.00;99.90;;;;;;2609677;54;20150;-76
2023/04/11 00:46:52;;;;;;;4.00;3.00;;;9.90;99.90;;;;;;2610994;47;21226;-76
2023/04/11 00:52:41;;;;;;;6.00;4.43;;;9.90;99.90;;;;;;2613032;54;20154;-76
2023/04/11 00:58:30;;;;;;;9.03;3.43;;;9.90;99.90;;;;;;2613466;54;20384;-76
2023/04/11 01:04:18;;;;;;;3.33;2.90;;;10.00;99.90;;;;;;2612792;54;20398;-75
2023/04/11 01:07:34;;;;;;;6.10;2.57;;;9.90;99.90;;;;;;2611414;39;20827;-76
2023/04/11 01:10:02;;;;;;;4.80;3.30;;;10.00;99.90;;;;;;2609679;54;20143;-77
2023/04/11 01:15:50;;;;;;;10.23;3.87;;;9.90;99.90;;;;;;2609249;54;20395;-76
2023/04/11 01:21:38;;;;;;;8.97;3.70;;;9.90;99.90;;;;;;2610204;54;20155;-77
2023/04/11 01:27:26;;;;;;;5.80;3.40;;;9.80;99.90;;;;;;2609355;54;20383;-77
2023/04/11 01:33:15;;;;;;;9.70;3.27;;;9.80;99.90;;;;;;2611007;54;20151;-76
2023/04/11 01:39:03;;;;;;;5.60;3.93;;;9.90;99.90;;;;;;2611790;54;20395;-75
2023/04/11 01:44:52;;;;;;;6.33;3.33;;;9.90;99.90;;;;;;2611705;46;20170;-76
2023/04/11 01:50:40;;;;;;;11.00;4.17;;;9.90;99.90;;;;;;2612628;54;20535;-77
2023/04/11 01:56:27;;;;;;;15.00;4.60;;;10.00;99.90;;;;;;2612731;54;20401;-76
2023/04/11 02:02:15;;;;;;;8.33;4.73;;;9.90;99.90;;;;;;2610724;54;20134;-75
2023/04/11 02:12:06;;;;;;;9.70;4.70;;;9.80;99.90;;;;;;2610730;54;20419;-75
2023/04/11 02:17:53;;;;;;;19.03;6.50;;;9.80;99.90;;;;;;2612523;54;20484;-76
2023/04/11 02:23:41;;;;;;;11.50;5.93;;;9.80;99.90;;;;;;2610538;54;20133;-76
2023/04/11 02:29:29;;;;;;;17.47;5.93;;;9.80;99.90;;;;;;2609884;54;20280;-71
2023/04/11 02:35:18;;;;;;;20.73;6.23;;;9.80;99.90;;;;;;2610400;54;20261;-71
2023/04/11 02:41:07;;;;;;;17.63;8.30;;;9.60;99.90;;;;;;2609442;54;20368;-70
2023/04/11 02:46:54;;;;;;;12.93;6.10;;;9.50;99.90;;;;;;2611864;39;20787;-69
2023/04/11 02:52:43;;;;;;;20.73;8.30;;;9.40;99.90;;;;;;2612475;54;20127;-70
2023/04/11 02:58:30;;;;;;;15.23;5.70;;;9.40;99.90;;;;;;2613685;54;20387;-70
2023/04/11 03:04:18;;;;;;;14.53;5.60;;;9.40;99.90;;;;;;2613711;39;20543;-70
2023/04/11 03:07:37;;;;;;;11.73;4.90;;;9.40;99.90;;;;;;2610959;54;20514;-69
2023/04/11 03:10:03;;;;;;;14.50;7.33;;;9.40;99.90;;;;;;2609797;54;20205;-69
2023/04/11 03:15:51;;;;;;;14.77;7.23;;;9.40;99.90;;;;;;2610252;54;20403;-70
2023/04/11 03:21:39;;;;;;;17.57;8.60;;;9.50;99.90;;;;;;2610499;54;20164;-69
2023/04/11 03:27:27;;;;;;;20.47;8.00;;;9.60;99.90;;;;;;2610973;54;20166;-68
2023/04/11 03:33:15;;;;;;;23.43;7.90;;;9.40;99.90;;;;;;2610845;54;20652;-69
2023/04/11 03:39:03;;;;;;;15.63;6.10;;;9.40;99.90;;;;;;2611396;39;20747;-70
2023/04/11 03:44:50;;;;;;;9.70;6.40;;;9.50;99.90;;;;;;2610298;54;20304;-69
2023/04/11 03:50:38;;;;;;;15.87;6.50;;;9.50;99.90;;;;;;2611005;54;20162;-70
2023/04/11 03:56:26;;;;;;;18.23;7.83;;;9.50;99.90;;;;;;2610818;54;20500;-70
2023/04/11 04:02:14;;;;;;;25.13;7.47;;;9.40;99.90;;;;;;2610035;54;20162;-70
2023/04/11 04:12:02;;;;;;;10.60;6.40;;;9.50;99.90;;;;;;2612111;39;20755;-71
2023/04/11 04:17:50;;;;;;;25.13;7.57;;;9.50;99.90;;;;;;2611471;54;20382;-70
2023/04/11 04:23:46;;;;;;;26.57;9.10;;;9.50;99.90;;;;;;2610224;39;21203;-70
2023/04/11 04:29:36;;;;;;;18.83;7.43;;;9.40;99.90;;;;;;2608378;46;20557;-70
2023/04/11 04:35:25;;;;;;;12.10;6.80;;;9.40;99.90;;;;;;2608608;54;20391;-71
2023/04/11 04:44:33;;;;;;;16.50;8.40;;;9.30;99.90;;;;;;2607791;54;23259;-70
2023/04/11 04:50:20;;;;;;;8.30;7.40;;;9.20;99.90;;;;;;2609223;46;20146;-68
2023/04/11 04:56:08;;;;;;;15.77;7.87;;;9.10;99.90;;;;;;2612821;54;20139;-70
2023/04/11 05:01:55;;;;;;;9.37;7.37;;;9.00;99.90;;;;;;2612476;54;20126;-69
2023/04/11 05:14:27;;;;;;;8.63;6.47;;;9.00;99.90;;;;;;2609418;54;20395;-70
2023/04/11 05:20:15;;;;;;;16.70;7.80;;;9.00;99.90;;;;;;2610215;54;20125;-70
2023/04/11 05:26:03;;;;;;;12.37;8.70;;;8.90;99.90;;;;;;2609113;54;20398;-70
2023/04/11 05:31:51;;;;;;;22.80;6.73;;;8.90;99.90;;;;;;2614557;54;20427;-69
2023/04/11 05:37:40;;;;;;;12.87;6.70;;;8.90;99.90;;;;;;2611458;46;20274;-69
2023/04/11 05:43:28;;;;;;;16.77;7.03;;;9.30;99.90;;;;;;2611436;54;20418;-69
2023/04/11 05:49:16;;;;;;;17.60;7.33;;;9.50;99.90;;;;;;2611982;54;20163;-70
2023/04/11 05:55:05;;;;;;;15.27;5.90;;;9.40;99.90;;;;;;2609562;54;20134;-69
2023/04/11 06:00:53;;;;;;;10.37;7.47;;;10.20;99.90;;;;;;2613475;46;20415;-70
2023/04/11 06:06:42;;;;;;;11.70;7.60;;;9.70;99.90;;;;;;2608297;54;20142;-70
2023/04/11 06:12:29;;;;;;;11.37;7.80;;;9.40;99.90;;;;;;2613875;54;20381;-70
2023/04/11 06:18:17;;;;;;;11.93;6.83;;;9.30;99.90;;;;;;2613982;54;20131;-70
2023/04/11 06:24:08;;;;;;;7.97;6.60;;;9.80;99.90;;;;;;2612504;54;20597;-69
2023/04/11 06:29:56;;;;;;;9.13;7.90;;;10.60;99.90;;;;;;2613264;54;20426;-69
2023/04/11 06:35:43;;;;;;;15.90;7.50;;;10.90;99.90;;;;;;2612205;54;20146;-70
2023/04/11 06:41:31;;;;;;;12.20;8.47;;;10.20;99.90;;;;;;2611537;54;20175;-70
2023/04/11 06:47:19;;;;;;;13.53;8.17;;;10.20;99.90;;;;;;2612643;54;20161;-69
2023/04/11 06:53:06;;;;;;;13.77;7.97;;;10.40;99.90;;;;;;2612808;54;20247;-69
2023/04/11 06:58:54;;;;;;;9.40;8.60;;;10.20;94.10;;;;;;2612556;54;20130;-69
2023/04/11 07:04:42;;;;;;;12.73;7.80;;;10.70;84.70;;;;;;2612796;54;20688;-70
2023/04/11 07:07:36;;;;;;;8.97;8.20;;;10.30;94.90;;;;;;2610669;46;20438;-69
2023/04/11 07:10:02;;;;;;;12.90;8.47;;;9.90;85.70;;;;;;2611432;54;20843;-70
2023/04/11 07:15:50;;;;;;;15.67;9.40;;;10.20;90.20;;;;;;2614501;39;20790;-69
2023/04/11 07:21:37;;;;;;;10.83;8.57;;;10.50;87.80;;;;;;2614256;54;20138;-69
2023/04/11 07:27:25;;;;;;;8.53;7.70;;;10.20;91.00;;;;;;2613827;54;20644;-69
2023/04/11 07:33:13;;;;;;;14.70;10.80;;;10.60;85.70;;;;;;2614016;54;20142;-70
2023/04/11 07:39:01;;;;;;;8.30;7.40;;;10.80;79.60;;;;;;2613925;54;20118;-68
2023/04/11 07:44:48;;;;;;;16.43;9.57;;;10.80;83.10;;;;;;2614070;39;20778;-68
2023/04/11 07:50:36;;;;;;;12.87;9.63;;;11.30;71.30;;;;;;2614464;39;20519;-69
2023/04/11 07:56:24;;;;;;;9.73;8.80;;;11.30;64.50;;;;;;2614094;54;20127;-71
2023/04/11 07:59:27;;;;;;;8.90;8.20;;;11.20;69.40;;;;;;2613866;54;20420;-69
2023/04/11 08:12:08;;;;;;;11.13;10.20;;;11.60;55.10;;;;;;2612321;54;20557;-69
2023/04/11 08:17:56;;;;;;;11.27;9.10;;;12.40;44.40;;;;;;2610836;54;20439;-69
2023/04/11 08:23:42;;;;;;;11.47;9.30;;;11.90;43.40;;;;;;2610470;54;20130;-69
2023/04/11 08:29:29;;;;;;;11.23;10.03;;;11.20;44.40;;;;;;2612410;54;20143;-68
2023/04/11 08:35:16;;;;;;;11.70;10.53;;;11.20;41.00;;;;;;2609934;54;20151;-70
2023/04/11 08:41:04;;;;;;;10.90;10.10;;;12.70;30.80;;;;;;2611707;54;20183;-69
2023/04/11 08:46:52;;;;;;;10.83;9.80;;;11.20;34.50;;;;;;2612194;54;20465;-69
2023/04/11 08:52:42;;;;;;;11.47;10.57;;;12.70;26.70;;;;;;2613335;39;20534;-69
2023/04/11 08:58:31;;;;;;;11.30;10.40;;;13.10;23.80;;;;;;2610262;54;20342;-69
2023/04/11 09:04:18;;;;;;;12.60;10.93;;;12.00;11.80;;;;;;2612982;54;20479;-69
2023/04/11 09:07:36;;;;;;;11.93;10.73;;;12.00;12.80;;;;;;2612241;54;20383;-69
2023/04/11 09:10:19;;;;;;;12.43;11.10;;;11.80;12.60;;;;;;2613521;54;20688;-68
2023/04/11 09:16:11;;;;;;;12.87;11.63;;;12.40;8.90;;;;;;2614384;54;20398;-70
2023/04/11 09:22:01;;;;;;;11.40;10.70;;;13.60;2.60;;;;;;2612674;54;20527;-69
2023/04/11 09:34:12;;;;;;;12.60;11.70;;;13.40;1.00;;;;;;2613685;54;20362;-69
2023/04/11 09:40:00;;;;;;;13.93;12.80;;;13.40;1.00;;;;;;2612873;54;20383;-69
2023/04/11 09:45:47;;;;;;;14.47;13.67;;;14.00;1.00;;;;;;2613139;54;20699;-70
2023/04/11 09:51:35;;;;;;;12.17;11.53;;;14.40;1.00;;;;;;2612625;54;20254;-69
2023/04/11 09:57:24;;;;;;;11.80;11.17;;;13.70;1.00;;;;;;2611384;54;20467;-69
2023/04/11 10:03:11;;;;;;;13.00;12.30;;;14.30;1.00;;;;;;2609291;54;20475;-70
2023/04/11 10:12:32;;;;;;;12.83;12.20;;;14.80;1.00;;;;;;2610511;54;20390;-69
2023/04/11 10:18:20;;;;;;;14.33;13.30;;;14.90;1.00;;;;;;2611682;54;20395;-69
2023/04/11 10:24:15;;;;;;;14.13;13.33;;;14.10;1.00;;;;;;2610700;54;20415;-68
2023/04/11 10:30:03;;;;;;;14.07;12.93;;;13.60;1.00;;;;;;2611601;54;20411;-69
2023/04/11 10:36:11;;;;;;;12.97;12.13;;;13.30;1.00;;;;;;2612103;54;20502;-69
2023/04/11 10:48:57;;;;;;;13.33;12.13;;;13.00;1.00;;;;;;2612213;54;20495;-69
2023/04/11 10:54:45;;;;;;;14.00;13.17;;;14.40;1.00;;;;;;2612486;54;20403;-69
2023/04/11 11:00:54;;;;;;;13.40;12.60;;;13.70;1.00;;;;;;2611019;54;20427;-68
2023/04/11 11:06:43;;;;;;;14.67;13.77;;;14.20;1.00;;;;;;2611208;54;20450;-69
2023/04/11 11:12:30;;;;;;;13.80;12.90;;;13.80;1.00;;;;;;2611748;54;20395;-68
2023/04/11 11:18:18;;;;;;;13.13;12.23;;;14.80;1.00;;;;;;2604987;54;20133;-69
2023/04/11 11:24:06;;;;;;;15.23;14.13;;;14.80;1.00;;;;;;2610289;54;20161;-69
2023/04/11 11:29:53;;;;;;;14.83;13.57;;;14.40;1.00;;;;;;2609889;39;20537;-70
2023/04/11 11:42:07;;;;;;;13.47;12.63;;;14.30;1.00;;;;;;2609784;54;21294;-69
2023/04/11 11:47:55;;;;;;;11.43;10.80;;;14.20;1.00;;;;;;2611670;54;20166;-70
2023/04/11 11:53:43;;;;;;;14.63;13.63;;;15.20;1.00;;;;;;2611210;54;20664;-69
2023/04/11 11:59:30;;;;;;;14.33;13.43;;;14.90;1.00;;;;;;2612127;54;20178;-69
2023/04/11 12:05:18;;;;;;;15.57;14.47;;;15.00;1.00;;;;;;2611658;54;20169;-68
2023/04/11 12:07:52;;;;;;;13.63;12.80;;;15.80;1.00;;;;;;2612837;54;20424;-69
2023/04/11 12:10:17;;;;;;;13.87;13.17;;;16.10;1.00;;;;;;2611948;54;20589;-70
2023/04/11 12:16:05;;;;;;;13.50;12.60;;;15.10;1.00;;;;;;2611746;54;20134;-69
2023/04/11 12:21:53;;;;;;;14.07;12.80;;;15.10;1.00;;;;;;2609552;54;20443;-69
2023/04/11 12:27:42;;;;;;;13.30;12.70;;;16.20;1.00;;;;;;2609114;54;20139;-70
2023/04/11 12:33:30;;;;;;;12.30;11.70;;;15.80;1.00;;;;;;2610263;54;20958;-69
2023/04/11 12:39:17;;;;;;;12.37;11.57;;;15.50;1.00;;;;;;2612017;54;21276;-70
2023/04/11 12:45:07;;;;;;;13.57;12.70;;;14.60;1.00;;;;;;2611148;54;20157;-69
2023/04/11 12:50:54;;;;;;;14.43;13.67;;;15.40;1.00;;;;;;2611621;54;20505;-68
2023/04/11 12:56:42;;;;;;;12.63;11.93;;;15.70;1.00;;;;;;2611729;54;20139;-69
2023/04/11 13:02:30;;;;;;;13.47;12.77;;;15.90;1.00;;;;;;2610217;54;20655;-69
2023/04/11 13:12:23;;;;;;;13.30;12.40;;;15.80;1.00;;;;;;2612422;54;20438;-70
2023/04/11 13:18:11;;;;;;;13.83;12.80;;;14.70;1.00;;;;;;2612649;54;20362;-69
2023/04/11 13:23:58;;;;;;;13.30;12.27;;;14.20;1.00;;;;;;2612734;54;20269;-69
2023/04/11 13:29:46;;;;;;;12.70;12.03;;;14.50;1.00;;;;;;2612467;54;20177;-69
2023/04/11 13:35:34;;;;;;;13.00;12.40;;;14.00;1.00;;;;;;2612985;54;20130;-69
2023/04/11 13:41:22;;;;;;;12.57;11.90;;;13.80;1.00;;;;;;2613138;54;20249;-69
2023/04/11 13:47:11;;;;;;;12.53;11.97;;;14.10;1.00;;;;;;2613568;54;20454;-69
2023/04/11 13:52:58;;;;;;;14.20;13.60;;;13.70;1.00;;;;;;2613677;39;20613;-68
2023/04/11 13:58:46;;;;;;;13.43;12.70;;;15.80;1.00;;;;;;2612946;54;20134;-69
2023/04/11 14:01:50;;;;;;;14.10;13.50;;;15.20;1.00;;;;;;2613804;54;20403;-70
2023/04/11 14:04:16;;;;;;;13.00;12.30;;;16.10;1.00;;;;;;2614081;46;20646;-69
2023/04/11 14:10:04;;;;;;;12.63;12.03;;;16.00;1.00;;;;;;2610413;54;20458;-70
2023/04/11 14:15:52;;;;;;;12.97;12.27;;;15.70;1.00;;;;;;2610644;54;20419;-70
2023/04/11 14:21:39;;;;;;;14.03;13.43;;;14.40;1.00;;;;;;2611168;54;20177;-70
2023/04/11 14:27:27;;;;;;;15.00;13.90;;;13.90;1.00;;;;;;2611156;54;20641;-70
2023/04/11 14:33:15;;;;;;;14.13;13.17;;;14.60;1.00;;;;;;2609979;54;20162;-69
2023/04/11 14:39:03;;;;;;;15.40;14.23;;;13.90;1.00;;;;;;2612575;54;20222;-69
2023/04/11 14:44:52;;;;;;;13.13;12.60;;;13.60;1.00;;;;;;2613255;54;20410;-69
2023/04/11 14:50:40;;;;;;;13.20;12.60;;;13.50;1.00;;;;;;2607391;46;20390;-70
2023/04/11 14:56:27;;;;;;;13.17;12.20;;;14.20;1.00;;;;;;2613617;54;20134;-69
2023/04/11 15:02:15;;;;;;;12.97;12.27;;;14.20;1.00;;;;;;2613272;54;20138;-69
2023/04/11 15:12:21;;;;;;;14.00;13.20;;;13.90;1.00;;;;;;2609904;54;20403;-71
2023/04/11 15:18:23;;;;;;;14.00;13.30;;;14.00;1.00;;;;;;2610455;46;20422;-69
2023/04/11 15:24:11;;;;;;;14.10;13.30;;;14.90;1.00;;;;;;2608478;54;20488;-70
2023/04/11 15:30:01;;;;;;;13.50;12.30;;;14.40;1.00;;;;;;2608418;54;20139;-69
2023/04/11 15:35:49;;;;;;;12.73;11.70;;;14.60;1.00;;;;;;2608052;54;20447;-70
2023/04/11 15:41:37;;;;;;;13.77;12.90;;;15.10;1.00;;;;;;2608738;54;20406;-69
2023/04/11 15:47:25;;;;;;;14.40;13.53;;;14.70;1.00;;;;;;2609191;54;20138;-69
2023/04/11 15:53:12;;;;;;;13.90;12.90;;;15.10;1.00;;;;;;2609380;54;20130;-70
2023/04/11 15:59:00;;;;;;;13.70;13.07;;;14.80;1.00;;;;;;2612677;54;20648;-69
2023/04/11 16:04:49;;;;;;;14.10;13.20;;;14.90;1.00;;;;;;2612723;39;20461;-69
2023/04/11 16:07:51;;;;;;;14.13;13.20;;;15.20;1.00;;;;;;2610345;54;20439;-70
2023/04/11 16:10:16;;;;;;;13.10;12.30;;;15.10;1.00;;;;;;2607339;54;20406;-69
2023/04/11 16:16:07;;;;;;;12.40;11.80;;;15.10;1.00;;;;;;2609211;54;20150;-69
2023/04/11 16:21:55;;;;;;;13.10;12.30;;;15.00;1.00;;;;;;2608043;54;20439;-70
2023/04/11 16:27:43;;;;;;;13.67;12.47;;;14.80;1.00;;;;;;2606732;54;20694;-70
2023/04/11 16:33:31;;;;;;;13.40;12.70;;;15.30;1.00;;;;;;2607979;54;20133;-70
2023/04/11 16:39:19;;;;;;;14.63;13.60;;;15.20;1.00;;;;;;2607936;54;20169;-70
2023/04/11 16:45:08;;;;;;;13.27;12.30;;;15.50;1.00;;;;;;2609019;39;20535;-69
2023/04/11 16:50:56;;;;;;;14.50;13.50;;;13.80;1.00;;;;;;2609111;54;20395;-70
2023/04/11 16:56:46;;;;;;;14.87;13.60;;;14.80;1.00;;;;;;2611843;54;20431;-70
2023/04/11 17:02:34;;;;;;;14.40;13.33;;;13.50;1.00;;;;;;2611150;54;20993;-69
2023/04/11 17:12:24;;;;;;;12.80;11.80;;;13.40;1.00;;;;;;2609897;54;20474;-69
2023/04/11 17:18:13;;;;;;;12.80;12.00;;;13.30;1.00;;;;;;2611581;54;20368;-69
2023/04/11 17:24:01;;;;;;;14.67;13.63;;;13.30;1.00;;;;;;2609093;54;20370;-69
2023/04/11 17:29:49;;;;;;;14.03;12.83;;;13.00;1.00;;;;;;2611235;54;20138;-69
2023/04/11 17:35:37;;;;;;;14.10;13.00;;;12.80;1.00;;;;;;2610699;54;20893;-70
2023/04/11 17:41:25;;;;;;;14.90;13.80;;;12.70;1.00;;;;;;2610350;54;20123;-69
2023/04/11 17:47:12;;;;;;;12.87;12.27;;;12.70;1.00;;;;;;2610359;54;20147;-68
2023/04/11 17:53:00;;;;;;;12.23;11.60;;;12.40;1.00;;;;;;2610140;54;20235;-69
2023/04/11 17:58:49;;;;;;;11.80;10.63;;;12.20;1.00;;;;;;2614470;54;20181;-69
2023/04/11 18:04:37;;;;;;;12.90;12.10;;;12.10;1.00;;;;;;2614464;54;20954;-69
2023/04/11 18:10:34;;;;;;;12.97;12.17;;;11.90;1.00;;;;;;2609836;47;20155;-70
2023/04/11 18:16:21;;;;;;;13.40;12.03;;;12.00;1.00;;;;;;2609701;39;20551;-69
2023/04/11 18:22:09;;;;;;;12.27;11.77;;;11.70;1.00;;;;;;2609080;54;20231;-70
2023/04/11 18:31:26;;;;;;;13.70;12.50;;;11.40;1.50;;;;;;2610526;39;21033;-69
2023/04/11 18:37:14;;;;;;;14.07;12.67;;;11.20;5.50;;;;;;2610854;54;20375;-69
2023/04/11 18:43:02;;;;;;;13.07;12.10;;;11.00;8.80;;;;;;2609000;54;20277;-69
2023/04/11 18:48:49;;;;;;;14.20;13.10;;;10.90;12.00;;;;;;2611211;54;20250;-69
2023/04/11 18:54:37;;;;;;;13.17;12.13;;;10.60;15.90;;;;;;2610434;54;20130;-69
2023/04/11 19:00:26;;;;;;;13.20;12.37;;;10.50;20.70;;;;;;2611322;54;20665;-69
2023/04/11 19:06:14;;;;;;;13.10;12.30;;;10.60;22.60;;;;;;2610867;54;20378;-69
2023/04/11 19:12:02;;;;;;;13.77;12.70;;;10.50;24.60;;;;;;2610579;54;20127;-69
2023/04/11 19:17:50;;;;;;;14.73;13.37;;;10.40;27.10;;;;;;2612783;54;20426;-69
2023/04/11 19:23:37;;;;;;;14.30;13.30;;;10.50;29.00;;;;;;2606651;54;21236;-71
2023/04/11 19:29:25;;;;;;;18.30;12.50;;;10.40;31.10;;;;;;2612102;54;20129;-68
2023/04/11 19:35:13;;;;;;;13.70;12.43;;;10.20;34.80;;;;;;2611133;54;20455;-70
2023/04/11 19:41:11;;;;;;;13.17;12.10;;;10.10;36.00;;;;;;2611483;54;20391;-70
2023/04/11 19:46:59;;;;;;;12.53;11.50;;;10.10;38.30;;;;;;2614244;54;20411;-70
2023/04/11 19:52:47;;;;;;;14.97;12.67;;;10.10;40.50;;;;;;2613936;54;20678;-70
2023/04/11 19:58:35;;;;;;;14.83;13.80;;;10.00;43.90;;;;;;2614128;54;20255;-69
2023/04/11 20:04:22;;;;;;;16.97;12.80;;;9.90;48.30;;;;;;2614111;54;20645;-69
2023/04/11 20:10:12;;;;;;;12.77;11.47;;;9.80;50.70;;;;;;2614053;54;20210;-69
2023/04/11 20:16:03;;;;;;;13.30;12.00;;;9.80;51.60;;;;;;2608439;54;20395;-69
2023/04/11 20:21:51;;;;;;;14.83;12.50;;;9.90;48.40;;;;;;2612947;54;20409;-69
2023/04/11 20:27:40;;;;;;;12.20;11.20;;;9.90;48.20;;;;;;2612186;39;20229;-70
2023/04/11 20:33:28;;;;;;;11.73;10.67;;;9.90;49.80;;;;;;2612790;54;20362;-68
2023/04/11 20:39:15;;;;;;;13.50;12.20;;;9.90;48.60;;;;;;2608334;39;20695;-69
2023/04/11 20:45:05;;;;;;;13.00;12.00;;;9.80;51.50;;;;;;2613081;39;20563;-69
2023/04/11 20:50:54;;;;;;;14.17;12.77;;;9.90;51.30;;;;;;2612572;54;20541;-69
2023/04/11 20:56:42;;;;;;;16.13;11.53;;;10.00;47.20;;;;;;2612357;54;20478;-69
2023/04/11 21:02:31;;;;;;;13.30;11.50;;;9.90;48.00;;;;;;2611247;54;20182;-69
2023/04/11 21:08:18;;;;;;;12.43;11.43;;;9.90;47.50;;;;;;2612069;54;20457;-69
2023/04/11 21:14:06;;;;;;;12.80;11.80;;;9.90;48.20;;;;;;2612853;54;21061;-69
2023/04/11 21:19:54;;;;;;;13.73;12.10;;;9.90;48.70;;;;;;2611904;54;20126;-70
2023/04/11 21:25:41;;;;;;;14.43;13.07;;;9.60;56.20;;;;;;2610672;54;20134;-69
2023/04/11 21:31:29;;;;;;;12.40;11.50;;;9.70;55.20;;;;;;2611424;54;20139;-69
2023/04/11 21:37:16;;;;;;;12.63;11.50;;;9.70;52.20;;;;;;2612897;54;20133;-69
2023/04/11 21:43:05;;;;;;;12.10;11.40;;;9.80;48.60;;;;;;2612282;47;20953;-69
2023/04/11 21:48:53;;;;;;;13.03;11.93;;;9.90;48.30;;;;;;2614333;54;20371;-69
2023/04/11 21:54:45;;;;;;;13.00;12.00;;;9.80;47.40;;;;;;2614403;54;20133;-68
2023/04/11 22:00:33;;;;;;;12.57;11.00;;;9.90;47.20;;;;;;2609111;54;20966;-69
2023/04/11 22:06:21;;;;;;;12.73;11.90;;;9.90;44.00;;;;;;2608595;54;20154;-70
2023/04/11 22:09:08;;;;;;;14.60;12.87;;;9.90;42.20;;;;;;2609061;39;21002;-69
2023/04/11 22:11:34;;;;;;;12.73;11.63;;;9.90;41.40;;;;;;2608400;54;20616;-69
2023/04/11 22:17:22;;;;;;;12.53;11.57;;;9.90;40.10;;;;;;2609068;39;20528;-69
2023/04/11 22:23:16;;;;;;;12.57;11.77;;;10.00;34.80;;;;;;2609065;54;20491;-69
2023/04/11 22:29:04;;;;;;;14.33;13.13;;;10.00;34.40;;;;;;2609579;54;20418;-69
2023/04/11 22:34:51;;;;;;;12.37;11.47;;;10.00;34.10;;;;;;2608500;54;20138;-68
2023/04/11 22:40:40;;;;;;;12.53;11.70;;;10.10;31.70;;;;;;2609599;54;20150;-71
2023/04/11 22:46:33;;;;;;;13.10;12.10;;;10.20;29.20;;;;;;2609374;54;20367;-69
2023/04/11 22:52:24;;;;;;;12.37;11.67;;;10.20;28.40;;;;;;2608243;54;20363;-70
2023/04/11 22:58:12;;;;;;;15.20;14.20;;;10.20;28.60;;;;;;2609176;39;20738;-69
2023/04/11 23:04:00;;;;;;;29.70;12.50;;;10.10;30.30;;;;;;2609839;47;20651;-69
2023/04/11 23:13:38;;;;;;;11.83;11.03;;;10.00;33.00;;;;;;2608523;39;21198;-68
2023/04/11 23:19:28;;;;;;;13.57;12.17;;;9.90;37.20;;;;;;2609980;54;20383;-69
2023/04/11 23:25:16;;;;;;;12.50;11.50;;;10.00;34.90;;;;;;2606971;54;20367;-69
2023/04/11 23:31:04;;;;;;;12.63;11.70;;;10.00;35.30;;;;;;2609754;39;20533;-69
2023/04/11 23:36:52;;;;;;;12.20;11.50;;;10.10;31.30;;;;;;2609303;54;20398;-69
2023/04/11 23:42:40;;;;;;;13.10;12.23;;;10.30;27.80;;;;;;2608337;54;20134;-69
2023/04/11 23:48:28;;;;;;;13.63;12.40;;;10.30;26.80;;;;;;2609201;39;21283;-69
2023/04/11 23:54:15;;;;;;;12.87;11.83;;;10.40;27.10;;;;;;2607437;54;20270;-69
